Time;durP1;ratioP1;P1;durP2;ratioP2;P2;SDS_P1;SDS_P2;PMS_P1;PMS_P2;Temp;Humidity;BMP_temperature;BMP_pressure;BME280_temperature;BME280_humidity;BME280_pressure;Samples;Min_cycle;Max_cycle;Signal;HPM_P1;HPM_P2
2023/11/29 00:00:10;;;;;;;2.10;2.00;;;4.40;97.40;;;;;;4999063;28;20208;-73
2023/11/29 00:02:37;;;;;;;2.20;2.10;;;4.40;97.20;;;;;;5000846;28;20225;-73
2023/11/29 00:05:06;;;;;;;2.13;2.03;;;4.40;96.80;;;;;;5002523;28;20220;-73
2023/11/29 00:07:35;;;;;;;2.00;1.90;;;4.50;96.60;;;;;;5000068;28;20236;-73
2023/11/29 00:10:02;;;;;;;2.30;2.20;;;4.60;96.20;;;;;;5002955;28;20213;-73
2023/11/29 00:12:30;;;;;;;2.22;2.13;;;4.60;96.20;;;;;;5002077;28;20234;-73
2023/11/29 00:14:57;;;;;;;2.30;2.20;;;4.60;96.10;;;;;;5003308;28;20295;-73
2023/11/29 00:17:24;;;;;;;2.22;2.13;;;4.50;96.30;;;;;;5002317;28;20259;-73
2023/11/29 00:19:51;;;;;;;1.98;1.98;;;4.50;96.90;;;;;;5001442;28;20223;-73
2023/11/29 00:22:18;;;;;;;2.05;1.95;;;4.50;97.20;;;;;;5004170;28;20216;-72
2023/11/29 00:24:47;;;;;;;2.15;2.05;;;4.50;97.10;;;;;;5000415;28;20212;-72
2023/11/29 00:27:15;;;;;;;2.40;2.30;;;4.40;97.40;;;;;;5001894;28;20251;-72
2023/11/29 00:29:42;;;;;;;2.20;2.10;;;4.40;96.80;;;;;;4998456;28;20197;-72
2023/11/29 00:32:09;;;;;;;2.05;2.00;;;4.40;96.30;;;;;;5002642;28;20232;-72
2023/11/29 00:34:37;;;;;;;2.17;2.08;;;4.30;96.20;;;;;;5000748;28;20204;-72
2023/11/29 00:37:04;;;;;;;2.17;2.08;;;4.30;96.70;;;;;;4985259;28;20250;-72
2023/11/29 00:39:32;;;;;;;1.92;1.92;;;4.30;97.00;;;;;;4999690;28;20702;-72
2023/11/29 00:42:01;;;;;;;2.25;2.13;;;4.20;96.60;;;;;;5001538;28;20260;-72
2023/11/29 00:44:28;;;;;;;1.90;1.90;;;4.20;95.90;;;;;;5002938;28;20200;-72
2023/11/29 00:46:55;;;;;;;2.30;2.20;;;4.20;96.60;;;;;;5003269;28;20239;-72
2023/11/29 00:49:22;;;;;;;2.30;2.20;;;4.10;96.40;;;;;;5001748;28;20212;-72
2023/11/29 00:51:49;;;;;;;2.00;1.90;;;4.10;95.70;;;;;;5002813;28;20231;-72
2023/11/29 00:54:16;;;;;;;2.20;2.10;;;4.10;95.90;;;;;;5021420;28;20199;-72
2023/11/29 00:56:44;;;;;;;2.35;2.25;;;4.10;95.70;;;;;;5015551;28;20224;-72
2023/11/29 00:59:13;;;;;;;1.90;1.90;;;4.10;95.90;;;;;;4987087;28;20259;-73
2023/11/29 01:01:40;;;;;;;2.20;2.10;;;4.10;95.80;;;;;;4986283;28;20248;-73
2023/11/29 01:04:07;;;;;;;2.35;2.25;;;4.10;95.80;;;;;;5006289;28;20203;-72
2023/11/29 01:06:34;;;;;;;2.17;2.08;;;4.10;95.50;;;;;;5001695;28;20249;-72
2023/11/29 01:09:04;;;;;;;2.15;2.05;;;4.10;95.40;;;;;;4986633;28;20747;-72
2023/11/29 01:11:31;;;;;;;2.05;1.95;;;4.10;95.80;;;;;;5002817;28;20290;-72
2023/11/29 01:13:58;;;;;;;2.03;2.03;;;4.10;95.90;;;;;;5007548;28;20208;-73
2023/11/29 01:16:27;;;;;;;2.25;2.17;;;4.00;95.80;;;;;;5003756;28;20224;-72
2023/11/29 01:18:54;;;;;;;2.20;2.10;;;4.00;95.80;;;;;;5002694;28;20621;-72
2023/11/29 01:21:21;;;;;;;2.40;2.30;;;4.00;95.80;;;;;;4984797;28;20725;-72
2023/11/29 01:23:48;;;;;;;2.30;2.20;;;4.00;95.30;;;;;;5004934;28;20211;-72
2023/11/29 01:26:16;;;;;;;2.38;2.28;;;4.00;95.70;;;;;;5002605;28;20212;-73
2023/11/29 01:28:43;;;;;;;2.33;2.22;;;4.00;95.80;;;;;;5001850;28;20220;-73
2023/11/29 01:31:12;;;;;;;2.30;2.20;;;3.80;96.20;;;;;;5001618;28;20219;-73
2023/11/29 01:33:41;;;;;;;2.03;2.00;;;3.70;96.30;;;;;;5003291;28;20203;-73
2023/11/29 01:36:09;;;;;;;2.25;2.15;;;3.60;96.50;;;;;;5003207;28;20216;-74
2023/11/29 01:38:36;;;;;;;2.30;2.20;;;3.50;96.80;;;;;;5004404;28;20235;-73
2023/11/29 01:41:04;;;;;;;2.38;2.28;;;3.50;97.00;;;;;;4988083;28;20196;-72
2023/11/29 01:43:31;;;;;;;2.10;2.10;;;3.50;96.80;;;;;;5003112;28;20212;-72
2023/11/29 01:45:59;;;;;;;2.25;2.17;;;3.50;97.60;;;;;;5001508;28;20758;-72
2023/11/29 01:48:27;;;;;;;2.30;2.20;;;3.50;97.00;;;;;;5006169;28;20248;-72
2023/11/29 01:50:56;;;;;;;2.30;2.20;;;3.60;96.20;;;;;;5001937;28;20649;-72
2023/11/29 01:53:27;;;;;;;2.20;2.10;;;3.60;96.50;;;;;;5007431;28;20306;-72
2023/11/29 01:55:54;;;;;;;2.33;2.13;;;3.50;96.20;;;;;;4972611;28;20216;-72
2023/11/29 01:58:22;;;;;;;1.95;1.95;;;3.50;96.60;;;;;;5003962;28;20578;-72
2023/11/29 02:00:49;;;;;;;1.92;1.92;;;3.40;97.30;;;;;;5004132;28;20208;-72
2023/11/29 02:03:18;;;;;;;2.42;2.33;;;3.40;97.10;;;;;;5003679;28;20220;-72
2023/11/29 02:05:45;;;;;;;2.20;2.10;;;3.30;97.40;;;;;;5004182;28;20580;-72
2023/11/29 02:08:14;;;;;;;2.30;2.20;;;3.30;97.60;;;;;;5003177;28;20231;-72
2023/11/29 02:10:42;;;;;;;2.15;2.05;;;3.30;98.10;;;;;;5002695;28;20237;-73
2023/11/29 02:13:09;;;;;;;2.40;2.30;;;3.30;97.80;;;;;;5000772;28;20298;-72
2023/11/29 02:15:36;;;;;;;2.50;2.40;;;3.30;97.20;;;;;;5004803;28;20204;-72
2023/11/29 02:18:04;;;;;;;2.30;2.20;;;3.30;96.80;;;;;;5004418;28;20886;-72
2023/11/29 02:20:31;;;;;;;2.22;2.13;;;3.30;96.70;;;;;;5000320;28;20203;-72
2023/11/29 02:23:04;;;;;;;2.42;2.33;;;3.20;96.90;;;;;;5003288;28;20630;-72
2023/11/29 02:25:32;;;;;;;2.35;2.25;;;3.10;97.40;;;;;;5023919;28;20265;-72
2023/11/29 02:28:01;;;;;;;2.50;2.40;;;3.00;97.20;;;;;;5004454;28;20710;-72
2023/11/29 02:30:28;;;;;;;2.50;2.40;;;2.90;97.20;;;;;;5000054;28;20287;-72
2023/11/29 02:32:55;;;;;;;2.28;2.17;;;2.80;97.60;;;;;;5018721;28;20909;-72
2023/11/29 02:35:22;;;;;;;2.28;2.17;;;2.80;98.00;;;;;;5025267;28;20196;-72
2023/11/29 02:37:49;;;;;;;2.20;2.10;;;2.80;97.80;;;;;;5021460;28;20787;-72
2023/11/29 02:40:16;;;;;;;2.60;2.50;;;2.80;98.10;;;;;;5023429;28;20199;-72
2023/11/29 02:42:45;;;;;;;2.45;2.35;;;2.80;98.00;;;;;;5006307;28;20220;-72
2023/11/29 02:45:13;;;;;;;2.40;2.30;;;2.80;97.20;;;;;;5003583;28;20212;-72
2023/11/29 02:47:40;;;;;;;2.42;2.33;;;2.70;97.40;;;;;;5002545;28;20236;-72
2023/11/29 02:50:09;;;;;;;2.55;2.45;;;2.80;97.70;;;;;;5001101;28;20655;-72
2023/11/29 02:52:36;;;;;;;2.50;2.40;;;2.70;97.60;;;;;;5009790;28;20247;-72
2023/11/29 02:55:03;;;;;;;2.50;2.40;;;2.80;96.90;;;;;;5000181;28;20204;-72
2023/11/29 02:57:30;;;;;;;2.40;2.30;;;2.90;96.80;;;;;;5004528;28;20220;-71
2023/11/29 02:59:59;;;;;;;2.60;2.50;;;2.90;96.90;;;;;;5003197;28;20204;-72
2023/11/29 03:02:26;;;;;;;2.50;2.40;;;2.90;96.60;;;;;;5012959;28;20254;-72
2023/11/29 03:04:54;;;;;;;2.58;2.47;;;2.90;96.40;;;;;;5004923;28;20215;-72
2023/11/29 03:07:21;;;;;;;2.45;2.35;;;2.90;96.20;;;;;;5012600;28;20219;-71
2023/11/29 03:09:48;;;;;;;2.40;2.30;;;2.90;96.20;;;;;;5000288;28;20429;-73
2023/11/29 03:12:15;;;;;;;2.42;2.33;;;2.90;95.90;;;;;;5001118;28;20227;-72
2023/11/29 03:14:42;;;;;;;2.50;2.40;;;2.80;96.20;;;;;;5003696;28;20204;-73
2023/11/29 03:17:11;;;;;;;2.58;2.47;;;2.80;96.50;;;;;;4983837;28;20742;-72
2023/11/29 03:19:38;;;;;;;2.50;2.40;;;2.70;97.10;;;;;;4998779;28;20224;-73
2023/11/29 03:22:06;;;;;;;2.30;2.20;;;2.70;97.20;;;;;;4981818;28;20224;-73
2023/11/29 03:24:33;;;;;;;2.42;2.33;;;2.70;97.20;;;;;;5004383;28;20240;-73
2023/11/29 03:27:00;;;;;;;2.30;2.20;;;2.70;96.90;;;;;;5001327;28;20219;-72
2023/11/29 03:29:27;;;;;;;2.40;2.30;;;2.60;97.30;;;;;;4999985;28;20211;-73
2023/11/29 03:31:54;;;;;;;2.60;2.50;;;2.60;97.40;;;;;;5003681;28;20225;-72
2023/11/29 03:34:23;;;;;;;2.65;2.55;;;2.50;97.90;;;;;;5004895;28;20217;-72
2023/11/29 03:36:50;;;;;;;2.60;2.50;;;2.40;98.20;;;;;;5003532;28;20231;-72
2023/11/29 03:39:17;;;;;;;2.80;2.70;;;2.30;98.70;;;;;;4982884;28;20224;-72
2023/11/29 03:41:45;;;;;;;2.60;2.50;;;2.30;98.60;;;;;;4997632;28;20349;-72
2023/11/29 03:44:12;;;;;;;2.40;2.30;;;2.20;98.90;;;;;;4979410;28;20775;-72
2023/11/29 03:46:39;;;;;;;2.50;2.40;;;2.20;99.00;;;;;;5002417;28;20225;-73
2023/11/29 03:49:06;;;;;;;2.45;2.35;;;2.20;99.20;;;;;;4988871;28;20265;-72
2023/11/29 03:51:35;;;;;;;2.63;2.53;;;2.20;99.20;;;;;;4982465;28;20224;-73
2023/11/29 03:54:02;;;;;;;2.70;2.60;;;2.20;99.10;;;;;;4970460;28;20201;-72
2023/11/29 03:56:29;;;;;;;2.63;2.53;;;2.20;98.30;;;;;;5002932;28;20247;-72
2023/11/29 03:58:57;;;;;;;2.55;2.45;;;2.30;98.60;;;;;;5002196;28;20759;-72
2023/11/29 04:01:24;;;;;;;2.60;2.50;;;2.20;98.40;;;;;;5001848;28;20228;-72
2023/11/29 04:03:51;;;;;;;2.70;2.60;;;2.20;98.10;;;;;;4996966;28;20219;-72
2023/11/29 04:06:29;;;;;;;2.85;2.75;;;2.20;98.70;;;;;;5000996;28;20200;-72
2023/11/29 04:08:57;;;;;;;2.80;2.70;;;2.10;98.70;;;;;;5001694;28;20669;-71
2023/11/29 04:11:25;;;;;;;3.00;2.90;;;2.10;98.30;;;;;;5003035;28;20946;-72
2023/11/29 04:13:52;;;;;;;2.78;2.67;;;2.10;98.20;;;;;;4985379;28;20304;-72
2023/11/29 04:16:24;;;;;;;2.90;2.70;;;2.10;98.50;;;;;;5005267;28;20826;-72
2023/11/29 04:18:52;;;;;;;4.45;4.25;;;2.10;98.50;;;;;;5002941;28;20733;-72
2023/11/29 04:21:21;;;;;;;2.70;2.60;;;2.00;98.70;;;;;;4983671;28;20211;-72
2023/11/29 04:23:48;;;;;;;2.90;2.80;;;1.90;99.30;;;;;;5021765;28;20214;-72
2023/11/29 04:26:31;;;;;;;2.90;2.80;;;1.90;99.30;;;;;;5021552;28;20211;-72
2023/11/29 04:28:59;;;;;;;3.20;3.10;;;1.80;99.80;;;;;;5021559;28;20294;-72
2023/11/29 04:31:26;;;;;;;2.90;2.80;;;1.80;99.60;;;;;;5021394;28;20231;-72
2023/11/29 04:33:53;;;;;;;2.50;2.40;;;1.80;99.80;;;;;;5005360;28;20203;-72
2023/11/29 04:36:21;;;;;;;3.10;3.00;;;1.80;99.50;;;;;;5025185;28;20208;-72
2023/11/29 04:38:49;;;;;;;2.70;2.60;;;1.80;99.70;;;;;;5010860;28;20204;-72
2023/11/29 04:41:17;;;;;;;2.85;2.75;;;1.80;99.70;;;;;;4989090;28;20685;-72
2023/11/29 04:43:46;;;;;;;2.83;2.72;;;1.70;99.90;;;;;;5006839;28;20601;-72
2023/11/29 04:46:14;;;;;;;2.60;2.50;;;1.70;99.50;;;;;;5024398;28;20858;-72
2023/11/29 04:48:44;;;;;;;2.83;2.72;;;1.70;99.30;;;;;;5026486;28;20227;-72
2023/11/29 04:51:11;;;;;;;2.60;2.50;;;1.80;99.50;;;;;;5007796;28;20207;-72
2023/11/29 04:53:39;;;;;;;2.75;2.65;;;1.90;99.50;;;;;;5026370;28;20719;-71
2023/11/29 04:56:07;;;;;;;2.38;2.28;;;1.80;99.50;;;;;;5023679;28;20199;-72
2023/11/29 04:58:39;;;;;;;2.95;2.85;;;1.80;99.20;;;;;;5025862;28;20223;-72
2023/11/29 05:01:10;;;;;;;2.70;2.60;;;1.70;99.40;;;;;;5004321;28;20212;-72
2023/11/29 05:03:37;;;;;;;2.83;2.72;;;1.70;99.70;;;;;;5012793;28;20274;-72
2023/11/29 05:06:06;;;;;;;2.53;2.42;;;1.70;99.50;;;;;;5027441;28;20202;-72
2023/11/29 05:08:33;;;;;;;2.78;2.67;;;1.70;99.50;;;;;;5033336;28;20216;-72
2023/11/29 05:11:01;;;;;;;2.70;2.60;;;1.70;99.50;;;;;;5023265;28;20283;-72
2023/11/29 05:13:29;;;;;;;2.90;2.80;;;1.70;99.50;;;;;;5023608;28;20599;-72
2023/11/29 05:15:56;;;;;;;2.97;2.80;;;1.70;99.50;;;;;;5008211;28;20281;-72
2023/11/29 05:18:24;;;;;;;3.08;2.97;;;1.60;99.70;;;;;;5025497;28;20227;-72
2023/11/29 05:20:52;;;;;;;2.97;2.83;;;1.60;99.60;;;;;;5024397;28;20204;-72
2023/11/29 05:23:19;;;;;;;2.70;2.60;;;1.60;99.30;;;;;;5026783;28;20211;-72
2023/11/29 05:25:46;;;;;;;2.80;2.70;;;1.60;99.70;;;;;;5007263;28;20802;-72
2023/11/29 05:28:14;;;;;;;2.63;2.53;;;1.50;99.80;;;;;;5021730;28;20227;-72
2023/11/29 05:30:41;;;;;;;3.20;3.10;;;1.50;99.90;;;;;;5026236;28;20207;-72
2023/11/29 05:33:08;;;;;;;2.97;2.88;;;1.50;99.90;;;;;;5005494;28;20827;-72
2023/11/29 05:35:37;;;;;;;2.85;2.75;;;1.50;99.80;;;;;;5005100;28;20287;-72
2023/11/29 05:38:04;;;;;;;3.08;2.97;;;1.50;99.80;;;;;;5003375;28;20236;-72
2023/11/29 05:40:31;;;;;;;2.85;2.75;;;1.50;99.80;;;;;;5002774;28;21391;-72
2023/11/29 05:42:58;;;;;;;2.90;2.80;;;1.50;99.90;;;;;;5004035;28;20224;-72
2023/11/29 05:45:26;;;;;;;3.20;3.10;;;1.60;99.90;;;;;;5002267;28;20200;-73
2023/11/29 05:47:53;;;;;;;3.35;3.10;;;1.50;99.70;;;;;;5003527;28;20232;-72
2023/11/29 05:50:20;;;;;;;2.67;2.58;;;1.50;99.40;;;;;;5003754;28;20287;-72
2023/11/29 05:52:49;;;;;;;2.75;2.65;;;1.50;99.50;;;;;;5004100;28;20247;-72
2023/11/29 05:55:16;;;;;;;2.72;2.63;;;1.50;99.50;;;;;;5006073;28;20200;-72
2023/11/29 05:57:45;;;;;;;3.10;3.00;;;1.50;99.60;;;;;;5002555;28;20320;-72
2023/11/29 06:00:15;;;;;;;3.53;3.33;;;1.50;99.70;;;;;;5003655;28;20200;-73
2023/11/29 06:02:42;;;;;;;4.40;4.20;;;1.50;99.80;;;;;;5003377;28;20265;-72
2023/11/29 06:05:10;;;;;;;4.70;4.40;;;1.50;99.90;;;;;;5003767;28;20287;-73
2023/11/29 06:07:38;;;;;;;4.90;4.60;;;1.50;99.90;;;;;;5001400;28;20239;-73
2023/11/29 06:10:08;;;;;;;4.45;4.25;;;1.50;99.90;;;;;;5000707;28;20808;-73
2023/11/29 06:12:35;;;;;;;3.58;3.40;;;1.50;99.90;;;;;;5003270;28;20216;-73
2023/11/29 06:15:04;;;;;;;3.65;3.45;;;1.50;99.90;;;;;;5001834;28;20681;-72
2023/11/29 06:17:33;;;;;;;3.95;3.80;;;1.50;99.90;;;;;;5015390;28;20235;-72
2023/11/29 06:20:00;;;;;;;3.75;3.55;;;1.50;99.90;;;;;;5026210;28;20208;-72
2023/11/29 06:22:27;;;;;;;3.50;3.30;;;1.50;99.90;;;;;;5015746;28;20227;-73
2023/11/29 06:24:54;;;;;;;3.15;3.05;;;1.50;99.90;;;;;;5005703;28;20204;-72
2023/11/29 06:27:23;;;;;;;3.33;3.20;;;1.50;99.90;;;;;;4997475;28;20752;-72
2023/11/29 06:29:49;;;;;;;3.20;3.00;;;1.50;99.90;;;;;;5026017;28;20204;-73
2023/11/29 06:32:16;;;;;;;3.53;3.33;;;1.50;99.90;;;;;;5005598;28;20759;-73
2023/11/29 06:34:45;;;;;;;3.28;3.17;;;1.60;99.90;;;;;;5023732;28;20207;-73
2023/11/29 06:37:12;;;;;;;3.00;2.90;;;1.60;99.90;;;;;;5024919;28;20262;-72
2023/11/29 06:39:39;;;;;;;2.78;2.67;;;1.60;99.90;;;;;;5024145;28;20210;-73
2023/11/29 06:42:06;;;;;;;3.47;3.28;;;1.60;99.90;;;;;;4999380;28;20233;-72
2023/11/29 06:44:35;;;;;;;2.67;2.58;;;1.60;99.90;;;;;;4986574;28;20269;-73
2023/11/29 06:47:04;;;;;;;3.67;3.47;;;1.60;99.90;;;;;;5004338;28;20225;-72
2023/11/29 06:49:31;;;;;;;3.55;3.35;;;1.60;99.90;;;;;;5003990;28;20295;-73
2023/11/29 06:51:58;;;;;;;3.40;3.28;;;1.60;99.90;;;;;;5003698;28;20857;-73
2023/11/29 06:54:25;;;;;;;4.28;3.97;;;1.60;99.90;;;;;;5004020;28;20610;-73
2023/11/29 06:56:52;;;;;;;4.75;4.55;;;1.60;99.90;;;;;;5001956;28;20700;-72
2023/11/29 06:59:20;;;;;;;5.07;4.82;;;1.60;99.90;;;;;;5005347;28;20211;-73
2023/11/29 07:01:48;;;;;;;4.38;4.18;;;1.60;99.90;;;;;;5003346;28;20239;-73
2023/11/29 07:04:15;;;;;;;4.20;4.00;;;1.60;99.90;;;;;;5004442;28;20193;-72
2023/11/29 07:06:43;;;;;;;3.40;3.30;;;1.60;99.90;;;;;;5005404;28;20729;-74
2023/11/29 07:09:13;;;;;;;3.72;3.53;;;1.60;99.90;;;;;;5004226;28;20204;-73
2023/11/29 07:11:40;;;;;;;3.17;3.08;;;1.60;99.90;;;;;;4992638;28;20723;-72
2023/11/29 07:14:08;;;;;;;3.47;3.35;;;1.50;99.90;;;;;;5022199;28;20215;-72
2023/11/29 07:16:35;;;;;;;3.40;3.20;;;1.50;99.90;;;;;;5002927;28;20752;-74
2023/11/29 07:19:04;;;;;;;3.08;2.97;;;1.60;99.90;;;;;;5021712;28;20204;-75
2023/11/29 07:21:31;;;;;;;2.92;2.83;;;1.60;99.90;;;;;;5020739;28;20251;-73
2023/11/29 07:23:58;;;;;;;3.40;3.30;;;1.70;99.90;;;;;;5024517;28;20215;-73
2023/11/29 07:26:25;;;;;;;3.15;3.05;;;1.70;99.90;;;;;;5022388;28;20670;-73
2023/11/29 07:28:52;;;;;;;3.30;3.20;;;1.80;99.90;;;;;;5024302;28;20237;-73
2023/11/29 07:31:20;;;;;;;3.17;3.08;;;1.80;99.90;;;;;;5003403;28;20261;-72
2023/11/29 07:33:47;;;;;;;3.20;3.10;;;1.80;99.90;;;;;;4981201;28;20682;-73
2023/11/29 07:36:16;;;;;;;3.20;3.10;;;1.70;99.90;;;;;;5001855;28;20207;-73
2023/11/29 07:38:45;;;;;;;2.75;2.65;;;1.70;99.90;;;;;;5021625;28;20219;-73
2023/11/29 07:41:12;;;;;;;2.88;2.78;;;1.70;99.90;;;;;;5022955;28;20290;-73
2023/11/29 07:43:39;;;;;;;3.05;2.95;;;1.70;99.90;;;;;;5023198;28;20800;-72
2023/11/29 07:46:06;;;;;;;3.10;3.00;;;1.80;99.90;;;;;;4989399;28;20776;-72
2023/11/29 07:48:33;;;;;;;3.50;3.30;;;1.80;99.90;;;;;;5021603;28;20227;-73
2023/11/29 07:51:01;;;;;;;3.78;3.58;;;1.70;99.90;;;;;;5022779;28;20291;-73
2023/11/29 07:53:30;;;;;;;3.60;3.40;;;1.80;99.90;;;;;;5023221;28;20219;-73
2023/11/29 07:55:57;;;;;;;3.30;3.20;;;1.80;99.90;;;;;;5025105;28;20207;-73
2023/11/29 07:58:24;;;;;;;3.53;3.33;;;1.80;99.90;;;;;;5022743;28;20230;-73
2023/11/29 08:00:52;;;;;;;3.00;2.88;;;1.80;99.90;;;;;;5023262;28;20215;-73
2023/11/29 08:03:19;;;;;;;3.20;3.00;;;2.00;99.90;;;;;;5008453;28;20219;-73
2023/11/29 08:05:46;;;;;;;3.47;3.28;;;2.70;99.90;;;;;;5018144;28;20549;-73
2023/11/29 08:08:13;;;;;;;3.10;2.90;;;3.90;99.70;;;;;;5008395;28;20874;-73
2023/11/29 08:10:42;;;;;;;3.30;3.10;;;5.00;98.50;;;;;;5024197;28;20201;-73
2023/11/29 08:13:09;;;;;;;3.13;3.03;;;6.00;97.30;;;;;;5026822;28;20227;-73
2023/11/29 08:15:38;;;;;;;3.20;3.00;;;6.90;96.20;;;;;;5011475;28;20223;-73
2023/11/29 08:18:05;;;;;;;233.82;27.70;;;7.60;94.80;;;;;;5012839;28;20235;-72
2023/11/29 08:20:32;;;;;;;2.80;2.60;;;8.30;93.70;;;;;;5025677;28;20207;-73
2023/11/29 08:23:00;;;;;;;2.55;2.45;;;8.70;92.40;;;;;;5023554;28;20226;-73
2023/11/29 08:25:27;;;;;;;2.70;2.50;;;9.00;90.90;;;;;;5028697;28;20767;-74
2023/11/29 08:27:55;;;;;;;2.30;2.20;;;9.20;91.20;;;;;;5007076;28;20705;-73
2023/11/29 08:30:23;;;;;;;2.40;2.30;;;9.40;90.80;;;;;;5027389;28;20207;-73
2023/11/29 08:32:50;;;;;;;3.13;2.90;;;9.40;89.10;;;;;;5009893;28;20223;-74
2023/11/29 08:35:17;;;;;;;2.88;2.67;;;9.50;90.00;;;;;;5024613;28;20206;-73
2023/11/29 08:37:45;;;;;;;2.97;2.78;;;9.60;88.40;;;;;;4994010;28;20223;-73
2023/11/29 08:40:13;;;;;;;2.50;2.30;;;9.70;88.60;;;;;;4989165;28;20215;-73
2023/11/29 08:42:40;;;;;;;2.70;2.50;;;10.10;89.70;;;;;;5006097;28;20239;-73
2023/11/29 08:45:11;;;;;;;2.72;2.53;;;10.50;88.50;;;;;;5008607;28;20843;-73
2023/11/29 08:47:38;;;;;;;4.03;2.60;;;10.90;88.50;;;;;;5006937;28;20227;-73
2023/11/29 08:50:07;;;;;;;3.97;2.33;;;11.20;83.50;;;;;;5006955;28;20780;-74
2023/11/29 08:52:34;;;;;;;2.70;2.45;;;11.20;82.00;;;;;;5005642;28;20224;-74
2023/11/29 08:55:02;;;;;;;2.88;2.67;;;11.30;82.60;;;;;;5006451;28;20596;-73
2023/11/29 08:57:29;;;;;;;4.43;2.88;;;11.30;81.50;;;;;;5002826;28;20232;-73
2023/11/29 08:59:57;;;;;;;3.17;2.70;;;11.30;81.70;;;;;;5006379;28;20212;-74
2023/11/29 09:02:27;;;;;;;3.20;2.67;;;11.50;79.80;;;;;;4995361;28;20259;-74
2023/11/29 09:04:54;;;;;;;2.67;2.47;;;12.40;78.10;;;;;;5006689;28;20207;-73
2023/11/29 09:07:21;;;;;;;2.63;2.42;;;13.70;72.10;;;;;;5006188;28;20232;-73
2023/11/29 09:09:49;;;;;;;2.25;2.15;;;15.00;65.80;;;;;;5004585;28;20216;-73
2023/11/29 09:12:16;;;;;;;2.63;2.08;;;16.40;61.50;;;;;;5003016;28;20220;-73
2023/11/29 09:14:43;;;;;;;3.03;2.60;;;17.70;57.60;;;;;;5006895;28;20754;-74
2023/11/29 09:17:11;;;;;;;4.70;2.45;;;19.10;53.90;;;;;;5006365;28;20266;-73
2023/11/29 09:19:40;;;;;;;2.38;2.17;;;20.20;50.10;;;;;;5006097;28;20899;-73
2023/11/29 09:22:08;;;;;;;2.60;2.40;;;21.20;46.90;;;;;;5004707;28;20315;-73
2023/11/29 09:24:36;;;;;;;2.45;2.25;;;21.80;43.00;;;;;;5007224;28;20254;-73
2023/11/29 09:27:04;;;;;;;5.63;2.10;;;22.00;41.60;;;;;;5004236;28;20643;-73
2023/11/29 09:29:32;;;;;;;2.30;2.10;;;22.20;41.80;;;;;;5006330;28;21137;-73
2023/11/29 09:32:00;;;;;;;2.70;2.35;;;22.20;41.20;;;;;;5005677;28;20844;-73
2023/11/29 09:34:27;;;;;;;2.70;2.15;;;22.00;40.00;;;;;;5002505;28;20659;-73
2023/11/29 09:36:59;;;;;;;2.38;2.15;;;21.70;40.10;;;;;;5005913;28;20224;-73
2023/11/29 09:39:28;;;;;;;2.38;2.17;;;21.20;39.40;;;;;;5005301;28;21387;-74
2023/11/29 09:41:56;;;;;;;1.98;1.88;;;20.60;39.80;;;;;;5007183;28;20232;-73
2023/11/29 09:44:25;;;;;;;3.17;2.10;;;19.30;42.30;;;;;;5005711;28;20204;-73
2023/11/29 09:46:52;;;;;;;2.33;2.13;;;17.80;44.00;;;;;;5007117;28;20307;-73
2023/11/29 09:49:19;;;;;;;2.67;2.15;;;16.20;47.00;;;;;;5005846;28;20632;-74
2023/11/29 09:51:47;;;;;;;3.20;2.17;;;15.10;49.10;;;;;;5004885;28;20228;-73
2023/11/29 09:54:16;;;;;;;2.22;2.03;;;14.50;51.80;;;;;;5004280;28;20212;-73
2023/11/29 09:56:43;;;;;;;2.42;2.10;;;13.60;53.10;;;;;;5005850;28;20235;-73
2023/11/29 09:59:10;;;;;;;2.90;2.70;;;13.30;54.60;;;;;;5006977;28;20203;-74
2023/11/29 10:01:37;;;;;;;2.30;2.10;;;13.40;54.50;;;;;;5005058;28;20224;-73
2023/11/29 10:04:08;;;;;;;2.30;2.10;;;13.40;55.50;;;;;;5005592;28;20197;-74
2023/11/29 10:06:35;;;;;;;2.55;2.13;;;13.40;54.80;;;;;;5005025;28;20251;-74
2023/11/29 10:09:05;;;;;;;3.05;2.25;;;13.20;54.30;;;;;;5005842;28;20200;-74
2023/11/29 10:11:35;;;;;;;2.05;1.90;;;13.10;55.90;;;;;;5005149;28;20252;-74
2023/11/29 10:14:04;;;;;;;3.38;2.20;;;13.30;56.50;;;;;;5002347;28;20225;-74
2023/11/29 10:16:31;;;;;;;3.03;2.17;;;13.30;55.00;;;;;;5003269;28;20286;-74
2023/11/29 10:18:59;;;;;;;2.55;2.25;;;13.30;56.00;;;;;;5006022;28;20204;-74
2023/11/29 10:21:26;;;;;;;2.28;2.10;;;13.30;55.00;;;;;;5003408;28;20263;-74
2023/11/29 10:23:54;;;;;;;2.00;1.90;;;13.10;55.50;;;;;;5002284;28;20200;-74
2023/11/29 10:26:22;;;;;;;1.92;1.83;;;13.00;55.80;;;;;;5006116;28;20276;-74
2023/11/29 10:28:53;;;;;;;2.05;1.90;;;13.20;55.70;;;;;;5005881;28;20204;-74
2023/11/29 10:31:22;;;;;;;1.80;1.70;;;13.20;54.10;;;;;;5003713;28;20287;-74
2023/11/29 10:33:50;;;;;;;1.95;1.85;;;13.30;55.60;;;;;;5003776;28;20252;-74
2023/11/29 10:36:19;;;;;;;2.15;1.92;;;13.50;55.70;;;;;;5001933;28;20212;-74
2023/11/29 10:38:52;;;;;;;1.67;1.58;;;13.40;56.20;;;;;;5004598;28;20240;-74
2023/11/29 10:41:23;;;;;;;2.40;2.20;;;13.50;56.20;;;;;;5001249;28;20196;-73
2023/11/29 10:43:54;;;;;;;2.03;1.85;;;13.60;54.70;;;;;;5003197;28;20583;-73
2023/11/29 10:46:23;;;;;;;2.80;1.70;;;13.70;54.50;;;;;;5007132;28;20212;-74
2023/11/29 10:48:59;;;;;;;1.90;1.80;;;13.80;54.50;;;;;;5003952;28;20266;-73
2023/11/29 10:51:26;;;;;;;1.45;1.35;;;13.80;53.80;;;;;;5005797;28;20224;-74
2023/11/29 10:53:55;;;;;;;2.50;1.60;;;13.60;53.10;;;;;;5001442;28;20246;-74
2023/11/29 10:56:22;;;;;;;2.03;1.88;;;13.50;52.90;;;;;;5004025;28;20223;-74
2023/11/29 10:59:05;;;;;;;1.65;1.55;;;13.40;53.10;;;;;;5002386;28;20736;-74
2023/11/29 11:01:33;;;;;;;1.73;1.63;;;13.30;52.40;;;;;;5002458;28;20235;-74
2023/11/29 11:04:00;;;;;;;1.60;1.50;;;12.80;51.80;;;;;;5004770;28;20231;-74
2023/11/29 11:06:37;;;;;;;1.70;1.60;;;12.60;52.20;;;;;;5003140;28;20652;-74
2023/11/29 11:09:06;;;;;;;1.77;1.67;;;12.40;53.40;;;;;;5000513;28;20208;-74
2023/11/29 11:11:43;;;;;;;1.77;1.67;;;12.50;55.00;;;;;;5003411;28;20220;-74
2023/11/29 11:14:29;;;;;;;2.00;1.90;;;12.40;54.70;;;;;;5003711;28;20789;-74
2023/11/29 11:16:58;;;;;;;1.77;1.67;;;12.60;54.40;;;;;;5001033;28;20779;-74
2023/11/29 11:19:34;;;;;;;2.67;2.00;;;12.70;54.10;;;;;;5004800;28;20204;-74
2023/11/29 11:22:02;;;;;;;1.83;1.70;;;12.80;53.00;;;;;;5005192;28;20216;-74
2023/11/29 11:24:58;;;;;;;1.58;1.48;;;12.80;54.90;;;;;;5004266;28;20200;-74
2023/11/29 11:27:30;;;;;;;2.33;1.50;;;12.90;54.10;;;;;;5003572;28;20220;-74
2023/11/29 11:29:58;;;;;;;1.75;1.60;;;13.10;53.80;;;;;;5004076;28;20200;-74
2023/11/29 11:32:45;;;;;;;1.67;1.58;;;13.40;53.40;;;;;;5004616;28;20212;-74
2023/11/29 11:35:35;;;;;;;2.35;1.73;;;13.20;51.50;;;;;;5002441;28;20220;-74
2023/11/29 11:38:06;;;;;;;2.08;1.98;;;13.00;52.60;;;;;;5002514;28;20766;-74
2023/11/29 11:40:34;;;;;;;1.80;1.70;;;13.00;53.40;;;;;;5001709;28;20208;-74
2023/11/29 11:43:02;;;;;;;1.77;1.67;;;12.90;52.00;;;;;;4995985;28;20231;-74
2023/11/29 11:45:33;;;;;;;1.70;1.60;;;12.90;52.60;;;;;;5003023;28;20196;-74
2023/11/29 11:48:01;;;;;;;1.67;1.58;;;12.80;52.90;;;;;;5003682;28;20789;-74
2023/11/29 11:50:28;;;;;;;3.47;1.80;;;12.70;52.70;;;;;;5004065;28;20211;-74
2023/11/29 11:52:59;;;;;;;1.98;1.80;;;12.40;53.60;;;;;;5003397;28;20223;-74
2023/11/29 11:55:27;;;;;;;2.00;1.90;;;12.20;53.40;;;;;;5003096;28;20314;-74
2023/11/29 11:57:55;;;;;;;1.90;1.60;;;12.20;53.80;;;;;;5004923;28;20270;-74
2023/11/29 12:00:24;;;;;;;1.70;1.60;;;12.30;53.20;;;;;;5001176;28;20200;-74
2023/11/29 12:02:53;;;;;;;2.35;1.88;;;12.50;54.40;;;;;;5000616;28;20262;-74
2023/11/29 12:05:21;;;;;;;1.50;1.40;;;12.40;52.60;;;;;;5005523;28;20208;-74
2023/11/29 12:07:49;;;;;;;1.58;1.48;;;12.50;53.90;;;;;;5001778;28;20231;-74
2023/11/29 12:10:16;;;;;;;1.60;1.50;;;12.60;53.50;;;;;;4984002;28;20208;-74
2023/11/29 12:12:44;;;;;;;1.95;1.73;;;12.90;53.80;;;;;;5002385;28;20227;-74
2023/11/29 12:15:16;;;;;;;1.90;1.80;;;12.90;53.60;;;;;;5001312;28;20235;-74
2023/11/29 12:17:45;;;;;;;1.90;1.80;;;12.80;53.50;;;;;;4998218;28;20231;-75
2023/11/29 12:20:14;;;;;;;2.25;1.80;;;12.30;53.20;;;;;;5002370;28;20863;-74
2023/11/29 12:22:44;;;;;;;1.42;1.38;;;12.00;54.30;;;;;;4998751;28;20228;-74
2023/11/29 12:25:15;;;;;;;2.00;1.90;;;11.90;54.90;;;;;;5004881;28;20270;-74
2023/11/29 12:27:46;;;;;;;1.85;1.67;;;11.90;55.40;;;;;;5000882;28;20228;-75
2023/11/29 12:30:14;;;;;;;1.85;1.75;;;12.00;54.70;;;;;;5002684;28;20725;-73
2023/11/29 12:32:42;;;;;;;2.75;1.80;;;12.20;53.10;;;;;;5002981;28;20224;-73
2023/11/29 12:35:12;;;;;;;1.98;1.80;;;12.20;54.70;;;;;;4998840;28;20788;-73
2023/11/29 12:37:47;;;;;;;1.85;1.75;;;12.30;54.60;;;;;;5001155;28;20220;-73
2023/11/29 12:40:16;;;;;;;1.73;1.63;;;12.50;54.70;;;;;;5001181;28;20218;-73
2023/11/29 12:42:44;;;;;;;2.03;1.88;;;12.70;54.70;;;;;;4999891;28;20224;-73
2023/11/29 12:45:12;;;;;;;1.92;1.75;;;12.80;54.50;;;;;;5000548;28;20232;-73
2023/11/29 12:47:39;;;;;;;1.85;1.75;;;12.60;53.00;;;;;;4995415;28;20255;-73
2023/11/29 12:50:08;;;;;;;2.10;2.00;;;12.50;54.10;;;;;;4999365;28;20611;-73
2023/11/29 12:52:35;;;;;;;2.90;1.90;;;12.30;53.50;;;;;;5002211;28;20262;-73
2023/11/29 12:55:04;;;;;;;2.65;1.92;;;12.20;54.90;;;;;;5001599;28;20693;-72
2023/11/29 12:57:32;;;;;;;2.05;1.95;;;12.20;53.70;;;;;;5002416;28;20232;-72